PWSweather.com
Personal Weather Stations
Station Observations

ChardChardGB

Lat: 50.877408, Lon: -2.94964741

Elevation: 341

Station Type: WS3083

http://www.merriott-astro.co.uk/weather/index.htm

High Low Average
Temperature 56.3°F13.5°C 51.8°F11.0°C 53.6°F12.0°C
Dew Point 49.0°F9.4°C 44.5°F6.9°C 47.2°F8.4°C
Winds 16.3 mph 26.2 kmh 7.1 mph 11.4 kmh 11.0 mph WSW17.7 kmh WSW
Wind Gusts 26.6 mph42.8 kmh 9.8 mph15.8 kmh 16.0 mph25.7 kmh
Humidity 83% 72% 79%
Pressure 29.62 in1003.0 mb 29.51 in999.3 mb -
Precipitation 0.01 in0.3 mm - -
Hour Temp Dew Point Humidity Winds Wind Gusts Pressure Precip Precip Rate Daily Precip Total
12:00 AM 52.5°F11.4°C 47.5°F8.6°C 83% 10.6 mph SW17.1 kmh SW 15.2 mph24.5 kmh 29.54 in1000.3 mb 0.00 in0.0 mm 0.00 in0.0 mm 0.00 in0.0 mm
12:10 AM 52.5°F11.4°C 47.5°F8.6°C 83% 12.2 mph WSW19.6 kmh WSW 16.8 mph27.0 kmh 29.54 in1000.3 mb 0.00 in0.0 mm 0.00 in0.0 mm 0.00 in0.0 mm
12:20 AM 52.5°F11.4°C 47.5°F8.6°C 83% 10.6 mph NW17.1 kmh NW 19.0 mph30.6 kmh 29.54 in1000.3 mb 0.00 in0.0 mm 0.00 in0.0 mm 0.00 in0.0 mm
12:30 AM 52.7°F11.5°C 47.4°F8.6°C 82% 11.2 mph W18.0 kmh W 15.2 mph24.5 kmh 29.54 in1000.3 mb 0.00 in0.0 mm 0.00 in0.0 mm 0.00 in0.0 mm
12:40 AM 52.7°F11.5°C 47.4°F8.6°C 82% 10.5 mph WSW16.9 kmh WSW 12.1 mph19.5 kmh 29.54 in1000.3 mb 0.00 in0.0 mm 0.00 in0.0 mm 0.00 in0.0 mm
12:50 AM 52.7°F11.5°C 47.4°F8.6°C 82% 10.0 mph WSW16.1 kmh WSW 12.1 mph19.5 kmh 29.55 in1000.7 mb 0.00 in0.0 mm 0.00 in0.0 mm 0.00 in0.0 mm
01:00 AM 52.7°F11.5°C 47.0°F8.3°C 81% 12.4 mph W20.0 kmh W 20.6 mph33.2 kmh 29.54 in1000.3 mb 0.00 in0.0 mm 0.00 in0.0 mm 0.00 in0.0 mm
01:10 AM 52.3°F11.3°C 47.0°F8.3°C 82% 12.4 mph SSW20.0 kmh SSW 17.4 mph28.0 kmh 29.54 in1000.3 mb 0.00 in0.0 mm 0.00 in0.0 mm 0.00 in0.0 mm
01:20 AM 52.5°F11.4°C 47.2°F8.4°C 82% 10.9 mph WSW17.5 kmh WSW 22.1 mph35.6 kmh 29.53 in1000.0 mb 0.00 in0.0 mm 0.00 in0.0 mm 0.00 in0.0 mm
01:30 AM 52.5°F11.4°C 47.5°F8.6°C 83% 9.9 mph WSW15.9 kmh WSW 13.6 mph21.9 kmh 29.54 in1000.3 mb 0.00 in0.0 mm 0.00 in0.0 mm 0.00 in0.0 mm
01:40 AM 52.5°F11.4°C 47.5°F8.6°C 83% 10.7 mph W17.2 kmh W 14.5 mph23.3 kmh 29.54 in1000.3 mb 0.00 in0.0 mm 0.00 in0.0 mm 0.00 in0.0 mm
01:50 AM 52.7°F11.5°C 47.7°F8.7°C 83% 12.1 mph W19.5 kmh W 15.9 mph25.6 kmh 29.54 in1000.3 mb 0.00 in0.0 mm 0.00 in0.0 mm 0.00 in0.0 mm
02:00 AM 52.7°F11.5°C 47.7°F8.7°C 83% 12.1 mph NE19.5 kmh NE 17.4 mph28.0 kmh 29.53 in1000.0 mb 0.00 in0.0 mm 0.00 in0.0 mm 0.00 in0.0 mm
02:10 AM 52.7°F11.5°C 47.7°F8.7°C 83% 13.4 mph WSW21.6 kmh WSW 17.4 mph28.0 kmh 29.53 in1000.0 mb 0.00 in0.0 mm 0.00 in0.0 mm 0.00 in0.0 mm
02:20 AM 52.7°F11.5°C 47.7°F8.7°C 83% 12.2 mph NW19.6 kmh NW 20.6 mph33.2 kmh 29.52 in999.7 mb 0.00 in0.0 mm 0.00 in0.0 mm 0.00 in0.0 mm
02:30 AM 52.9°F11.6°C 47.5°F8.6°C 82% 13.1 mph WSW21.1 kmh WSW 19.0 mph30.6 kmh 29.52 in999.7 mb 0.00 in0.0 mm 0.00 in0.0 mm 0.00 in0.0 mm
02:40 AM 52.9°F11.6°C 47.5°F8.6°C 82% 15.4 mph W24.8 kmh W 20.6 mph33.2 kmh 29.52 in999.7 mb 0.01 in0.3 mm 0.06 in1.5 mm 0.01 in0.3 mm
02:50 AM 52.7°F11.5°C 47.4°F8.6°C 82% 11.2 mph WNW18.0 kmh WNW 14.5 mph23.3 kmh 29.53 in1000.0 mb 0.01 in0.3 mm 0.00 in0.0 mm 0.01 in0.3 mm
03:00 AM 52.5°F11.4°C 47.2°F8.4°C 82% 11.8 mph NW19.0 kmh NW 14.5 mph23.3 kmh 29.52 in999.7 mb 0.01 in0.3 mm 0.00 in0.0 mm 0.01 in0.3 mm
03:10 AM 52.3°F11.3°C 47.0°F8.3°C 82% 11.8 mph SW19.0 kmh SW 16.8 mph27.0 kmh 29.52 in999.7 mb 0.01 in0.3 mm 0.00 in0.0 mm 0.01 in0.3 mm
03:20 AM 52.3°F11.3°C 47.0°F8.3°C 82% 11.7 mph W18.8 kmh W 16.8 mph27.0 kmh 29.51 in999.3 mb 0.01 in0.3 mm 0.00 in0.0 mm 0.01 in0.3 mm
03:30 AM 52.5°F11.4°C 46.9°F8.3°C 81% 10.7 mph SW17.2 kmh SW 15.9 mph25.6 kmh 29.52 in999.7 mb 0.01 in0.3 mm 0.00 in0.0 mm 0.01 in0.3 mm
03:40 AM 52.5°F11.4°C 46.9°F8.3°C 81% 12.6 mph W20.3 kmh W 17.4 mph28.0 kmh 29.52 in999.7 mb 0.00 in0.0 mm 0.00 in0.0 mm 0.01 in0.3 mm
03:50 AM 52.7°F11.5°C 46.7°F8.2°C 80% 13.1 mph NNE21.1 kmh NNE 18.3 mph29.5 kmh 29.52 in999.7 mb 0.00 in0.0 mm 0.00 in0.0 mm 0.01 in0.3 mm
04:00 AM 52.5°F11.4°C 46.5°F8.1°C 80% 13.2 mph N21.2 kmh N 19.7 mph31.7 kmh 29.52 in999.7 mb 0.00 in0.0 mm 0.00 in0.0 mm 0.01 in0.3 mm
04:10 AM 52.7°F11.5°C 47.0°F8.3°C 81% 12.8 mph W20.6 kmh W 19.0 mph30.6 kmh 29.52 in999.7 mb 0.00 in0.0 mm 0.00 in0.0 mm 0.01 in0.3 mm
04:20 AM 52.7°F11.5°C 47.0°F8.3°C 81% 16.3 mph WSW26.2 kmh WSW 22.1 mph35.6 kmh 29.51 in999.3 mb 0.00 in0.0 mm 0.00 in0.0 mm 0.01 in0.3 mm
04:30 AM 52.7°F11.5°C 46.7°F8.2°C 80% 16.2 mph SSW26.1 kmh SSW 22.8 mph36.7 kmh 29.52 in999.7 mb 0.00 in0.0 mm 0.00 in0.0 mm 0.01 in0.3 mm
04:40 AM 52.5°F11.4°C 46.5°F8.1°C 80% 11.6 mph NNW18.7 kmh NNW 16.8 mph27.0 kmh 29.52 in999.7 mb 0.00 in0.0 mm 0.00 in0.0 mm 0.01 in0.3 mm
04:50 AM 52.3°F11.3°C 46.7°F8.2°C 81% 12.9 mph WNW20.8 kmh WNW 17.4 mph28.0 kmh 29.52 in999.7 mb 0.00 in0.0 mm 0.00 in0.0 mm 0.01 in0.3 mm
05:00 AM 52.3°F11.3°C 46.7°F8.2°C 81% 12.7 mph W20.4 kmh W 15.9 mph25.6 kmh 29.51 in999.3 mb 0.00 in0.0 mm 0.00 in0.0 mm 0.01 in0.3 mm
05:10 AM 52.3°F11.3°C 46.7°F8.2°C 81% 13.8 mph N22.2 kmh N 16.8 mph27.0 kmh 29.51 in999.3 mb 0.00 in0.0 mm 0.00 in0.0 mm 0.01 in0.3 mm
05:20 AM 52.5°F11.4°C 46.9°F8.3°C 81% 12.2 mph WSW19.6 kmh WSW 15.9 mph25.6 kmh 29.51 in999.3 mb 0.00 in0.0 mm 0.00 in0.0 mm 0.01 in0.3 mm
05:30 AM 52.7°F11.5°C 47.0°F8.3°C 81% 12.9 mph WSW20.8 kmh WSW 16.8 mph27.0 kmh 29.51 in999.3 mb 0.00 in0.0 mm 0.00 in0.0 mm 0.01 in0.3 mm
05:40 AM 52.9°F11.6°C 47.2°F8.4°C 81% 13.1 mph WSW21.1 kmh WSW 17.4 mph28.0 kmh 29.52 in999.7 mb 0.00 in0.0 mm 0.00 in0.0 mm 0.01 in0.3 mm
05:50 AM 52.9°F11.6°C 47.2°F8.4°C 81% 11.2 mph W18.0 kmh W 18.3 mph29.5 kmh 29.52 in999.7 mb 0.00 in0.0 mm 0.00 in0.0 mm 0.01 in0.3 mm
06:00 AM 52.9°F11.6°C 47.2°F8.4°C 81% 11.3 mph WSW18.2 kmh WSW 14.5 mph23.3 kmh 29.52 in999.7 mb 0.00 in0.0 mm 0.00 in0.0 mm 0.01 in0.3 mm
06:10 AM 52.9°F11.6°C 47.2°F8.4°C 81% 11.9 mph WNW19.2 kmh WNW 19.0 mph30.6 kmh 29.52 in999.7 mb 0.00 in0.0 mm 0.00 in0.0 mm 0.01 in0.3 mm
06:20 AM 52.9°F11.6°C 47.2°F8.4°C 81% 11.4 mph WSW18.3 kmh WSW 17.4 mph28.0 kmh 29.53 in1000.0 mb 0.00 in0.0 mm 0.00 in0.0 mm 0.01 in0.3 mm
06:30 AM 52.9°F11.6°C 47.2°F8.4°C 81% 11.2 mph NW18.0 kmh NW 14.5 mph23.3 kmh 29.54 in1000.3 mb 0.00 in0.0 mm 0.00 in0.0 mm 0.01 in0.3 mm
06:40 AM 52.7°F11.5°C 47.0°F8.3°C 81% 13.9 mph WNW22.4 kmh WNW 23.5 mph37.8 kmh 29.53 in1000.0 mb 0.00 in0.0 mm 0.00 in0.0 mm 0.01 in0.3 mm
06:50 AM 52.7°F11.5°C 47.0°F8.3°C 81% 12.3 mph SW19.8 kmh SW 16.8 mph27.0 kmh 29.53 in1000.0 mb 0.00 in0.0 mm 0.00 in0.0 mm 0.01 in0.3 mm
07:00 AM 52.9°F11.6°C 47.2°F8.4°C 81% 14.7 mph W23.7 kmh W 22.8 mph36.7 kmh 29.53 in1000.0 mb 0.00 in0.0 mm 0.00 in0.0 mm 0.01 in0.3 mm
07:10 AM 53.1°F11.7°C 47.4°F8.6°C 81% 11.7 mph W18.8 kmh W 15.9 mph25.6 kmh 29.53 in1000.0 mb 0.00 in0.0 mm 0.00 in0.0 mm 0.01 in0.3 mm
07:20 AM 53.2°F11.8°C 47.2°F8.4°C 80% 13.9 mph NW22.4 kmh NW 18.3 mph29.5 kmh 29.54 in1000.3 mb 0.00 in0.0 mm 0.00 in0.0 mm 0.01 in0.3 mm
07:30 AM 53.2°F11.8°C 47.2°F8.4°C 80% 12.3 mph WSW19.8 kmh WSW 14.5 mph23.3 kmh 29.54 in1000.3 mb 0.00 in0.0 mm 0.00 in0.0 mm 0.01 in0.3 mm
07:40 AM 53.4°F11.9°C 47.4°F8.6°C 80% 13.4 mph S21.6 kmh S 21.3 mph34.3 kmh 29.54 in1000.3 mb 0.00 in0.0 mm 0.00 in0.0 mm 0.01 in0.3 mm
07:50 AM 53.4°F11.9°C 47.4°F8.6°C 80% 12.5 mph WSW20.1 kmh WSW 18.3 mph29.5 kmh 29.55 in1000.7 mb 0.00 in0.0 mm 0.00 in0.0 mm 0.01 in0.3 mm
08:00 AM 53.4°F11.9°C 47.4°F8.6°C 80% 11.8 mph W19.0 kmh W 26.6 mph42.8 kmh 29.55 in1000.7 mb 0.00 in0.0 mm 0.00 in0.0 mm 0.01 in0.3 mm
08:10 AM 53.4°F11.9°C 47.4°F8.6°C 80% 12.1 mph SW19.5 kmh SW 14.5 mph23.3 kmh 29.54 in1000.3 mb 0.00 in0.0 mm 0.00 in0.0 mm 0.01 in0.3 mm
08:20 AM 53.8°F12.1°C 47.8°F8.8°C 80% 12.9 mph WSW20.8 kmh WSW 16.8 mph27.0 kmh 29.54 in1000.3 mb 0.00 in0.0 mm 0.00 in0.0 mm 0.01 in0.3 mm
08:30 AM 54.0°F12.2°C 47.9°F8.8°C 80% 10.7 mph WNW17.2 kmh WNW 14.5 mph23.3 kmh 29.55 in1000.7 mb 0.00 in0.0 mm 0.00 in0.0 mm 0.01 in0.3 mm
08:40 AM 54.0°F12.2°C 47.6°F8.7°C 79% 13.6 mph WNW21.9 kmh WNW 17.4 mph28.0 kmh 29.55 in1000.7 mb 0.00 in0.0 mm 0.00 in0.0 mm 0.01 in0.3 mm
08:50 AM 54.0°F12.2°C 47.6°F8.7°C 79% 10.0 mph WSW16.1 kmh WSW 13.0 mph20.9 kmh 29.55 in1000.7 mb 0.00 in0.0 mm 0.00 in0.0 mm 0.01 in0.3 mm
09:00 AM 53.8°F12.1°C 47.8°F8.8°C 80% 12.4 mph W20.0 kmh W 18.3 mph29.5 kmh 29.57 in1001.4 mb 0.00 in0.0 mm 0.00 in0.0 mm 0.01 in0.3 mm
09:10 AM 53.8°F12.1°C 47.8°F8.8°C 80% 11.2 mph WSW18.0 kmh WSW 18.3 mph29.5 kmh 29.56 in1001.0 mb 0.00 in0.0 mm 0.00 in0.0 mm 0.01 in0.3 mm
09:20 AM 53.8°F12.1°C 48.1°F8.9°C 81% 11.8 mph WNW19.0 kmh WNW 16.8 mph27.0 kmh 29.56 in1001.0 mb 0.00 in0.0 mm 0.00 in0.0 mm 0.01 in0.3 mm
09:30 AM 53.8°F12.1°C 48.1°F8.9°C 81% 10.4 mph NW16.7 kmh NW 18.3 mph29.5 kmh 29.56 in1001.0 mb 0.00 in0.0 mm 0.00 in0.0 mm 0.01 in0.3 mm
09:40 AM 53.8°F12.1°C 48.4°F9.1°C 82% 10.2 mph WNW16.4 kmh WNW 16.8 mph27.0 kmh 29.57 in1001.4 mb 0.00 in0.0 mm 0.00 in0.0 mm 0.01 in0.3 mm
09:50 AM 54.0°F12.2°C 48.6°F9.2°C 82% 10.4 mph WSW16.7 kmh WSW 13.0 mph20.9 kmh 29.55 in1000.7 mb 0.00 in0.0 mm 0.00 in0.0 mm 0.01 in0.3 mm
10:00 AM 54.3°F12.4°C 49.0°F9.4°C 82% 11.6 mph WSW18.7 kmh WSW 18.3 mph29.5 kmh 29.55 in1000.7 mb 0.00 in0.0 mm 0.00 in0.0 mm 0.01 in0.3 mm
10:10 AM 54.7°F12.6°C 48.0°F8.9°C 78% 11.7 mph WNW18.8 kmh WNW 15.2 mph24.5 kmh 29.56 in1001.0 mb 0.00 in0.0 mm 0.00 in0.0 mm 0.01 in0.3 mm
10:20 AM 54.9°F12.7°C 47.8°F8.8°C 77% 12.0 mph SW19.3 kmh SW 19.0 mph30.6 kmh 29.55 in1000.7 mb 0.00 in0.0 mm 0.00 in0.0 mm 0.01 in0.3 mm
10:30 AM 55.0°F12.8°C 47.6°F8.7°C 76% 12.9 mph WNW20.8 kmh WNW 17.4 mph28.0 kmh 29.55 in1000.7 mb 0.00 in0.0 mm 0.00 in0.0 mm 0.01 in0.3 mm
10:40 AM 55.2°F12.9°C 47.8°F8.8°C 76% 9.0 mph W14.5 kmh W 16.8 mph27.0 kmh 29.55 in1000.7 mb 0.00 in0.0 mm 0.00 in0.0 mm 0.01 in0.3 mm
10:50 AM 55.0°F12.8°C 47.6°F8.7°C 76% 10.5 mph W16.9 kmh W 20.6 mph33.2 kmh 29.55 in1000.7 mb 0.00 in0.0 mm 0.00 in0.0 mm 0.01 in0.3 mm
11:00 AM 55.2°F12.9°C 47.8°F8.8°C 76% 16.0 mph WNW25.7 kmh WNW 20.6 mph33.2 kmh 29.56 in1001.0 mb 0.00 in0.0 mm 0.00 in0.0 mm 0.01 in0.3 mm
11:10 AM 55.6°F13.1°C 47.8°F8.8°C 75% 11.6 mph WSW18.7 kmh WSW 16.8 mph27.0 kmh 29.56 in1001.0 mb 0.00 in0.0 mm 0.00 in0.0 mm 0.01 in0.3 mm
11:20 AM 55.4°F13.0°C 47.3°F8.5°C 74% 12.3 mph N19.8 kmh N 17.4 mph28.0 kmh 29.56 in1001.0 mb 0.00 in0.0 mm 0.00 in0.0 mm 0.01 in0.3 mm
11:30 AM 55.4°F13.0°C 47.3°F8.5°C 74% 15.3 mph WNW24.6 kmh WNW 20.6 mph33.2 kmh 29.57 in1001.4 mb 0.00 in0.0 mm 0.00 in0.0 mm 0.01 in0.3 mm
11:40 AM 55.4°F13.0°C 47.6°F8.7°C 75% 13.3 mph W21.4 kmh W 20.6 mph33.2 kmh 29.56 in1001.0 mb 0.00 in0.0 mm 0.00 in0.0 mm 0.01 in0.3 mm
11:50 AM 55.8°F13.2°C 47.6°F8.7°C 74% 11.2 mph WSW18.0 kmh WSW 14.5 mph23.3 kmh 29.57 in1001.4 mb 0.00 in0.0 mm 0.00 in0.0 mm 0.01 in0.3 mm
12:00 PM 56.1°F13.4°C 47.6°F8.7°C 73% 13.4 mph NW21.6 kmh NW 17.4 mph28.0 kmh 29.57 in1001.4 mb 0.00 in0.0 mm 0.00 in0.0 mm 0.01 in0.3 mm
12:10 PM 56.3°F13.5°C 47.8°F8.8°C 73% 12.1 mph W19.5 kmh W 18.3 mph29.5 kmh 29.57 in1001.4 mb 0.00 in0.0 mm 0.00 in0.0 mm 0.01 in0.3 mm
12:20 PM 56.3°F13.5°C 47.8°F8.8°C 73% 10.6 mph W17.1 kmh W 14.5 mph23.3 kmh 29.57 in1001.4 mb 0.00 in0.0 mm 0.00 in0.0 mm 0.01 in0.3 mm
12:30 PM 56.3°F13.5°C 47.4°F8.6°C 72% 11.2 mph W18.0 kmh W 15.2 mph24.5 kmh 29.57 in1001.4 mb 0.00 in0.0 mm 0.00 in0.0 mm 0.01 in0.3 mm
12:40 PM 56.1°F13.4°C 47.2°F8.4°C 72% 15.1 mph WNW24.3 kmh WNW 21.3 mph34.3 kmh 29.57 in1001.4 mb 0.00 in0.0 mm 0.00 in0.0 mm 0.01 in0.3 mm
12:50 PM 55.9°F13.3°C 47.4°F8.6°C 73% 12.3 mph SW19.8 kmh SW 15.9 mph25.6 kmh 29.58 in1001.7 mb 0.00 in0.0 mm 0.00 in0.0 mm 0.01 in0.3 mm
01:00 PM 56.1°F13.4°C 47.6°F8.7°C 73% 11.9 mph NNW19.2 kmh NNW 20.6 mph33.2 kmh 29.57 in1001.4 mb 0.00 in0.0 mm 0.00 in0.0 mm 0.01 in0.3 mm
01:10 PM 55.8°F13.2°C 47.2°F8.4°C 73% 11.5 mph SW18.5 kmh SW 18.3 mph29.5 kmh 29.58 in1001.7 mb 0.00 in0.0 mm 0.00 in0.0 mm 0.01 in0.3 mm
01:20 PM 55.8°F13.2°C 47.2°F8.4°C 73% 10.9 mph W17.5 kmh W 18.3 mph29.5 kmh 29.59 in1002.0 mb 0.00 in0.0 mm 0.00 in0.0 mm 0.01 in0.3 mm
01:30 PM 55.4°F13.0°C 46.9°F8.3°C 73% 10.7 mph W17.2 kmh W 17.4 mph28.0 kmh 29.58 in1001.7 mb 0.00 in0.0 mm 0.00 in0.0 mm 0.01 in0.3 mm
01:40 PM 55.4°F13.0°C 46.9°F8.3°C 73% 11.2 mph WSW18.0 kmh WSW 15.2 mph24.5 kmh 29.58 in1001.7 mb 0.00 in0.0 mm 0.00 in0.0 mm 0.01 in0.3 mm
01:50 PM 55.0°F12.8°C 46.9°F8.3°C 74% 11.2 mph W18.0 kmh W 14.5 mph23.3 kmh 29.59 in1002.0 mb 0.00 in0.0 mm 0.00 in0.0 mm 0.01 in0.3 mm
02:00 PM 55.4°F13.0°C 47.6°F8.7°C 75% 8.9 mph W14.3 kmh W 13.0 mph20.9 kmh 29.58 in1001.7 mb 0.00 in0.0 mm 0.00 in0.0 mm 0.01 in0.3 mm
02:10 PM 55.2°F12.9°C 47.1°F8.4°C 74% 11.0 mph WNW17.7 kmh WNW 17.4 mph28.0 kmh 29.59 in1002.0 mb 0.00 in0.0 mm 0.00 in0.0 mm 0.01 in0.3 mm
02:20 PM 55.2°F12.9°C 47.1°F8.4°C 74% 11.5 mph SW18.5 kmh SW 16.8 mph27.0 kmh 29.59 in1002.0 mb 0.00 in0.0 mm 0.00 in0.0 mm 0.01 in0.3 mm
02:30 PM 55.0°F12.8°C 46.9°F8.3°C 74% 11.7 mph SSW18.8 kmh SSW 15.2 mph24.5 kmh 29.58 in1001.7 mb 0.00 in0.0 mm 0.00 in0.0 mm 0.01 in0.3 mm
02:40 PM 55.0°F12.8°C 46.9°F8.3°C 74% 11.9 mph WSW19.2 kmh WSW 16.8 mph27.0 kmh 29.58 in1001.7 mb 0.00 in0.0 mm 0.00 in0.0 mm 0.01 in0.3 mm
02:50 PM 55.0°F12.8°C 46.9°F8.3°C 74% 13.1 mph W21.1 kmh W 17.4 mph28.0 kmh 29.58 in1001.7 mb 0.00 in0.0 mm 0.00 in0.0 mm 0.01 in0.3 mm
03:00 PM 55.0°F12.8°C 46.9°F8.3°C 74% 11.8 mph W19.0 kmh W 15.2 mph24.5 kmh 29.59 in1002.0 mb 0.00 in0.0 mm 0.00 in0.0 mm 0.01 in0.3 mm
03:10 PM 55.2°F12.9°C 46.7°F8.2°C 73% 11.6 mph WNW18.7 kmh WNW 15.9 mph25.6 kmh 29.58 in1001.7 mb 0.00 in0.0 mm 0.00 in0.0 mm 0.01 in0.3 mm
03:20 PM 55.2°F12.9°C 46.7°F8.2°C 73% 11.8 mph WSW19.0 kmh WSW 14.5 mph23.3 kmh 29.58 in1001.7 mb 0.00 in0.0 mm 0.00 in0.0 mm 0.01 in0.3 mm
03:30 PM 55.0°F12.8°C 46.6°F8.1°C 73% 14.6 mph SW23.5 kmh SW 19.7 mph31.7 kmh 29.58 in1001.7 mb 0.00 in0.0 mm 0.00 in0.0 mm 0.01 in0.3 mm
03:40 PM 55.0°F12.8°C 46.6°F8.1°C 73% 13.4 mph W21.6 kmh W 17.4 mph28.0 kmh 29.58 in1001.7 mb 0.00 in0.0 mm 0.00 in0.0 mm 0.01 in0.3 mm
03:50 PM 55.0°F12.8°C 46.6°F8.1°C 73% 12.7 mph NW20.4 kmh NW 15.2 mph24.5 kmh 29.58 in1001.7 mb 0.00 in0.0 mm 0.00 in0.0 mm 0.01 in0.3 mm
04:00 PM 55.0°F12.8°C 46.6°F8.1°C 73% 11.3 mph SSW18.2 kmh SSW 15.9 mph25.6 kmh 29.58 in1001.7 mb 0.00 in0.0 mm 0.00 in0.0 mm 0.01 in0.3 mm
04:10 PM 55.0°F12.8°C 46.6°F8.1°C 73% 10.2 mph W16.4 kmh W 13.6 mph21.9 kmh 29.57 in1001.4 mb 0.00 in0.0 mm 0.00 in0.0 mm 0.01 in0.3 mm
04:20 PM 54.9°F12.7°C 46.4°F8.0°C 73% 10.4 mph WSW16.7 kmh WSW 15.9 mph25.6 kmh 29.58 in1001.7 mb 0.00 in0.0 mm 0.00 in0.0 mm 0.01 in0.3 mm
04:30 PM 54.7°F12.6°C 46.2°F7.9°C 73% 11.4 mph W18.3 kmh W 19.7 mph31.7 kmh 29.57 in1001.4 mb 0.00 in0.0 mm 0.00 in0.0 mm 0.01 in0.3 mm
04:40 PM 54.5°F12.5°C 46.0°F7.8°C 73% 12.3 mph SW19.8 kmh SW 19.0 mph30.6 kmh 29.58 in1001.7 mb 0.00 in0.0 mm 0.00 in0.0 mm 0.01 in0.3 mm
04:50 PM 54.1°F12.3°C 47.1°F8.4°C 77% 11.8 mph SW19.0 kmh SW 15.9 mph25.6 kmh 29.58 in1001.7 mb 0.00 in0.0 mm 0.00 in0.0 mm 0.01 in0.3 mm
05:00 PM 54.0°F12.2°C 47.3°F8.5°C 78% 7.8 mph W12.6 kmh W 12.1 mph19.5 kmh 29.58 in1001.7 mb 0.00 in0.0 mm 0.00 in0.0 mm 0.01 in0.3 mm
05:10 PM 53.8°F12.1°C 47.4°F8.6°C 79% 11.1 mph WSW17.9 kmh WSW 15.2 mph24.5 kmh 29.58 in1001.7 mb 0.00 in0.0 mm 0.00 in0.0 mm 0.01 in0.3 mm
05:20 PM 53.4°F11.9°C 47.4°F8.6°C 80% 9.8 mph SW15.8 kmh SW 13.6 mph21.9 kmh 29.58 in1001.7 mb 0.00 in0.0 mm 0.00 in0.0 mm 0.01 in0.3 mm
05:30 PM 53.2°F11.8°C 47.6°F8.7°C 81% 8.7 mph S14.0 kmh S 13.6 mph21.9 kmh 29.59 in1002.0 mb 0.00 in0.0 mm 0.00 in0.0 mm 0.01 in0.3 mm
05:40 PM 53.2°F11.8°C 47.6°F8.7°C 81% 10.0 mph WSW16.1 kmh WSW 15.2 mph24.5 kmh 29.58 in1001.7 mb 0.00 in0.0 mm 0.00 in0.0 mm 0.01 in0.3 mm
05:50 PM 53.2°F11.8°C 47.6°F8.7°C 81% 11.2 mph SW18.0 kmh SW 16.8 mph27.0 kmh 29.59 in1002.0 mb 0.00 in0.0 mm 0.00 in0.0 mm 0.01 in0.3 mm
06:00 PM 53.2°F11.8°C 47.6°F8.7°C 81% 10.6 mph SW17.1 kmh SW 15.2 mph24.5 kmh 29.59 in1002.0 mb 0.00 in0.0 mm 0.00 in0.0 mm 0.01 in0.3 mm
06:10 PM 53.2°F11.8°C 47.6°F8.7°C 81% 10.9 mph SW17.5 kmh SW 18.3 mph29.5 kmh 29.60 in1002.4 mb 0.00 in0.0 mm 0.00 in0.0 mm 0.01 in0.3 mm
06:20 PM 53.2°F11.8°C 47.2°F8.4°C 80% 11.7 mph SW18.8 kmh SW 13.6 mph21.9 kmh 29.60 in1002.4 mb 0.00 in0.0 mm 0.00 in0.0 mm 0.01 in0.3 mm
06:30 PM 53.2°F11.8°C 47.2°F8.4°C 80% 11.0 mph WSW17.7 kmh WSW 13.6 mph21.9 kmh 29.60 in1002.4 mb 0.00 in0.0 mm 0.00 in0.0 mm 0.01 in0.3 mm
06:40 PM 53.1°F11.7°C 47.1°F8.4°C 80% 10.9 mph WSW17.5 kmh WSW 17.4 mph28.0 kmh 29.60 in1002.4 mb 0.00 in0.0 mm 0.00 in0.0 mm 0.01 in0.3 mm
06:50 PM 53.1°F11.7°C 47.1°F8.4°C 80% 9.0 mph N14.5 kmh N 11.4 mph18.3 kmh 29.61 in1002.7 mb 0.00 in0.0 mm 0.00 in0.0 mm 0.01 in0.3 mm
07:00 PM 53.1°F11.7°C 47.1°F8.4°C 80% 11.7 mph WSW18.8 kmh WSW 15.2 mph24.5 kmh 29.60 in1002.4 mb 0.00 in0.0 mm 0.00 in0.0 mm 0.01 in0.3 mm
07:10 PM 53.1°F11.7°C 47.1°F8.4°C 80% 9.2 mph WSW14.8 kmh WSW 14.5 mph23.3 kmh 29.61 in1002.7 mb 0.00 in0.0 mm 0.00 in0.0 mm 0.01 in0.3 mm
07:20 PM 52.9°F11.6°C 46.9°F8.3°C 80% 9.5 mph WSW15.3 kmh WSW 12.1 mph19.5 kmh 29.60 in1002.4 mb 0.00 in0.0 mm 0.00 in0.0 mm 0.01 in0.3 mm
07:30 PM 52.9°F11.6°C 46.9°F8.3°C 80% 9.8 mph WSW15.8 kmh WSW 15.2 mph24.5 kmh 29.60 in1002.4 mb 0.00 in0.0 mm 0.00 in0.0 mm 0.01 in0.3 mm
07:40 PM 52.9°F11.6°C 46.9°F8.3°C 80% 8.4 mph WSW13.5 kmh WSW 15.2 mph24.5 kmh 29.60 in1002.4 mb 0.00 in0.0 mm 0.00 in0.0 mm 0.01 in0.3 mm
07:50 PM 52.9°F11.6°C 47.2°F8.4°C 81% 9.4 mph SW15.1 kmh SW 12.1 mph19.5 kmh 29.60 in1002.4 mb 0.00 in0.0 mm 0.00 in0.0 mm 0.01 in0.3 mm
08:00 PM 52.9°F11.6°C 47.2°F8.4°C 81% 7.9 mph WSW12.7 kmh WSW 11.4 mph18.3 kmh 29.60 in1002.4 mb 0.00 in0.0 mm 0.00 in0.0 mm 0.01 in0.3 mm
08:10 PM 52.9°F11.6°C 46.9°F8.3°C 80% 9.5 mph SSW15.3 kmh SSW 11.4 mph18.3 kmh 29.61 in1002.7 mb 0.00 in0.0 mm 0.00 in0.0 mm 0.01 in0.3 mm
08:20 PM 52.9°F11.6°C 47.2°F8.4°C 81% 10.6 mph W17.1 kmh W 16.8 mph27.0 kmh 29.61 in1002.7 mb 0.00 in0.0 mm 0.00 in0.0 mm 0.01 in0.3 mm
08:30 PM 52.5°F11.4°C 46.9°F8.3°C 81% 9.0 mph SW14.5 kmh SW 13.0 mph20.9 kmh 29.61 in1002.7 mb 0.00 in0.0 mm 0.00 in0.0 mm 0.01 in0.3 mm
08:40 PM 52.5°F11.4°C 46.9°F8.3°C 81% 9.3 mph SW15.0 kmh SW 19.7 mph31.7 kmh 29.62 in1003.0 mb 0.00 in0.0 mm 0.00 in0.0 mm 0.01 in0.3 mm
08:50 PM 52.5°F11.4°C 46.9°F8.3°C 81% 10.1 mph WSW16.3 kmh WSW 15.2 mph24.5 kmh 29.61 in1002.7 mb 0.00 in0.0 mm 0.00 in0.0 mm 0.01 in0.3 mm
09:00 PM 52.7°F11.5°C 47.0°F8.3°C 81% 9.8 mph SW15.8 kmh SW 13.6 mph21.9 kmh 29.61 in1002.7 mb 0.00 in0.0 mm 0.00 in0.0 mm 0.01 in0.3 mm
09:10 PM 52.5°F11.4°C 46.9°F8.3°C 81% 7.2 mph W11.6 kmh W 10.7 mph17.2 kmh 29.61 in1002.7 mb 0.00 in0.0 mm 0.00 in0.0 mm 0.01 in0.3 mm
09:20 PM 52.5°F11.4°C 46.9°F8.3°C 81% 10.5 mph WSW16.9 kmh WSW 15.9 mph25.6 kmh 29.61 in1002.7 mb 0.00 in0.0 mm 0.00 in0.0 mm 0.01 in0.3 mm
09:30 PM 52.3°F11.3°C 47.0°F8.3°C 82% 8.5 mph W13.7 kmh W 15.2 mph24.5 kmh 29.61 in1002.7 mb 0.00 in0.0 mm 0.00 in0.0 mm 0.01 in0.3 mm
09:40 PM 52.3°F11.3°C 47.0°F8.3°C 82% 8.4 mph SW13.5 kmh SW 11.4 mph18.3 kmh 29.60 in1002.4 mb 0.00 in0.0 mm 0.00 in0.0 mm 0.01 in0.3 mm
09:50 PM 52.2°F11.2°C 47.2°F8.4°C 83% 8.5 mph SW13.7 kmh SW 11.4 mph18.3 kmh 29.60 in1002.4 mb 0.00 in0.0 mm 0.00 in0.0 mm 0.01 in0.3 mm
10:00 PM 52.2°F11.2°C 47.2°F8.4°C 83% 8.1 mph SSW13.0 kmh SSW 9.8 mph15.8 kmh 29.60 in1002.4 mb 0.00 in0.0 mm 0.00 in0.0 mm 0.01 in0.3 mm
10:10 PM 52.2°F11.2°C 47.2°F8.4°C 83% 9.1 mph SW14.6 kmh SW 12.1 mph19.5 kmh 29.61 in1002.7 mb 0.00 in0.0 mm 0.00 in0.0 mm 0.01 in0.3 mm
10:20 PM 52.3°F11.3°C 47.3°F8.5°C 83% 8.4 mph SW13.5 kmh SW 12.1 mph19.5 kmh 29.60 in1002.4 mb 0.00 in0.0 mm 0.00 in0.0 mm 0.01 in0.3 mm
10:30 PM 52.3°F11.3°C 47.0°F8.3°C 82% 11.2 mph SW18.0 kmh SW 15.2 mph24.5 kmh 29.60 in1002.4 mb 0.00 in0.0 mm 0.00 in0.0 mm 0.01 in0.3 mm
10:40 PM 52.3°F11.3°C 46.7°F8.2°C 81% 8.9 mph SSW14.3 kmh SSW 11.4 mph18.3 kmh 29.61 in1002.7 mb 0.00 in0.0 mm 0.00 in0.0 mm 0.01 in0.3 mm
10:50 PM 52.3°F11.3°C 46.4°F8.0°C 80% 8.2 mph SW13.2 kmh SW 12.1 mph19.5 kmh 29.60 in1002.4 mb 0.00 in0.0 mm 0.00 in0.0 mm 0.01 in0.3 mm
11:00 PM 52.3°F11.3°C 46.4°F8.0°C 80% 8.9 mph WSW14.3 kmh WSW 13.0 mph20.9 kmh 29.60 in1002.4 mb 0.00 in0.0 mm 0.00 in0.0 mm 0.01 in0.3 mm
11:10 PM 52.3°F11.3°C 46.0°F7.8°C 79% 7.1 mph SW11.4 kmh SW 10.7 mph17.2 kmh 29.59 in1002.0 mb 0.00 in0.0 mm 0.00 in0.0 mm 0.01 in0.3 mm
11:20 PM 52.3°F11.3°C 45.7°F7.6°C 78% 7.6 mph SW12.2 kmh SW 12.1 mph19.5 kmh 29.59 in1002.0 mb 0.00 in0.0 mm 0.00 in0.0 mm 0.01 in0.3 mm
11:30 PM 52.3°F11.3°C 45.4°F7.4°C 77% 7.7 mph WSW12.4 kmh WSW 12.1 mph19.5 kmh 29.59 in1002.0 mb 0.00 in0.0 mm 0.00 in0.0 mm 0.01 in0.3 mm
11:40 PM 52.2°F11.2°C 44.8°F7.1°C 76% 7.6 mph SW12.2 kmh SW 12.1 mph19.5 kmh 29.58 in1001.7 mb 0.00 in0.0 mm 0.00 in0.0 mm 0.01 in0.3 mm
11:50 PM 51.8°F11.0°C 44.5°F6.9°C 76% 7.9 mph WSW12.7 kmh WSW 10.7 mph17.2 kmh 29.58 in1001.7 mb 0.00 in0.0 mm 0.00 in0.0 mm 0.01 in0.3 mm